sensor_id;sensor_type;location;lat;lon;timestamp;P1;durP1;ratioP1;P2;durP2;ratioP2
37983;SDS011;64625;50.882;4.376;2022-12-18T00:01:03;66.63;;;;;
37983;SDS011;64625;50.882;4.376;2022-12-18T00:03:34;57.95;;;27.90;;
37983;SDS011;64625;50.882;4.376;2022-12-18T00:06:01;53.67;;;25.52;;
37983;SDS011;64625;50.882;4.376;2022-12-18T00:08:27;51.70;;;24.98;;
37983;SDS011;64625;50.882;4.376;2022-12-18T00:10:53;65.32;;;29.80;;
37983;SDS011;64625;50.882;4.376;2022-12-18T00:13:20;55.60;;;26.02;;
37983;SDS011;64625;50.882;4.376;2022-12-18T00:15:45;56.72;;;25.80;;
37983;SDS011;64625;50.882;4.376;2022-12-18T00:18:11;68.38;;;29.00;;
37983;SDS011;64625;50.882;4.376;2022-12-18T00:20:38;55.70;;;26.83;;
37983;SDS011;64625;50.882;4.376;2022-12-18T00:23:05;55.00;;;27.42;;
37983;SDS011;64625;50.882;4.376;2022-12-18T00:25:35;55.55;;;25.48;;
37983;SDS011;64625;50.882;4.376;2022-12-18T00:28:04;60.13;;;26.67;;
37983;SDS011;64625;50.882;4.376;2022-12-18T00:30:30;55.63;;;24.48;;
37983;SDS011;64625;50.882;4.376;2022-12-18T00:32:56;58.03;;;25.58;;
37983;SDS011;64625;50.882;4.376;2022-12-18T00:35:22;54.78;;;25.63;;
37983;SDS011;64625;50.882;4.376;2022-12-18T00:37:48;61.15;;;27.40;;
37983;SDS011;64625;50.882;4.376;2022-12-18T00:40:14;51.92;;;26.30;;
37983;SDS011;64625;50.882;4.376;2022-12-18T00:42:40;59.70;;;27.02;;
37983;SDS011;64625;50.882;4.376;2022-12-18T00:45:25;64.10;;;26.58;;
37983;SDS011;64625;50.882;4.376;2022-12-18T00:47:52;54.83;;;23.40;;
37983;SDS011;64625;50.882;4.376;2022-12-18T00:50:18;62.63;;;26.50;;
37983;SDS011;64625;50.882;4.376;2022-12-18T00:52:44;47.60;;;24.15;;
37983;SDS011;64625;50.882;4.376;2022-12-18T00:55:11;52.40;;;25.83;;
37983;SDS011;64625;50.882;4.376;2022-12-18T00:57:37;57.80;;;25.90;;
37983;SDS011;64625;50.882;4.376;2022-12-18T01:00:03;56.05;;;25.55;;
37983;SDS011;64625;50.882;4.376;2022-12-18T01:02:30;48.83;;;24.13;;
37983;SDS011;64625;50.882;4.376;2022-12-18T01:04:56;53.67;;;25.35;;
37983;SDS011;64625;50.882;4.376;2022-12-18T01:07:22;61.63;;;26.20;;
37983;SDS011;64625;50.882;4.376;2022-12-18T01:09:48;50.58;;;23.42;;
37983;SDS011;64625;50.882;4.376;2022-12-18T01:12:14;51.65;;;23.67;;
37983;SDS011;64625;50.882;4.376;2022-12-18T01:14:39;57.25;;;25.33;;
37983;SDS011;64625;50.882;4.376;2022-12-18T01:17:05;58.17;;;25.63;;
37983;SDS011;64625;50.882;4.376;2022-12-18T01:19:31;52.85;;;23.65;;
37983;SDS011;64625;50.882;4.376;2022-12-18T01:21:57;52.22;;;25.50;;
37983;SDS011;64625;50.882;4.376;2022-12-18T01:24:23;63.55;;;27.15;;
37983;SDS011;64625;50.882;4.376;2022-12-18T01:26:49;54.05;;;25.85;;
37983;SDS011;64625;50.882;4.376;2022-12-18T01:29:15;61.13;;;26.35;;
37983;SDS011;64625;50.882;4.376;2022-12-18T01:31:42;57.15;;;27.27;;
37983;SDS011;64625;50.882;4.376;2022-12-18T01:34:08;61.28;;;26.88;;
37983;SDS011;64625;50.882;4.376;2022-12-18T01:36:36;62.08;;;25.33;;
37983;SDS011;64625;50.882;4.376;2022-12-18T01:39:10;48.35;;;23.52;;
37983;SDS011;64625;50.882;4.376;2022-12-18T01:41:38;48.30;;;22.77;;
37983;SDS011;64625;50.882;4.376;2022-12-18T01:52:47;54.25;;;25.42;;
37983;SDS011;64625;50.882;4.376;2022-12-18T01:55:26;43.03;;;21.70;;
37983;SDS011;64625;50.882;4.376;2022-12-18T01:57:56;45.47;;;21.52;;
37983;SDS011;64625;50.882;4.376;2022-12-18T02:00:25;45.53;;;22.52;;
37983;SDS011;64625;50.882;4.376;2022-12-18T02:02:52;46.78;;;20.92;;
37983;SDS011;64625;50.882;4.376;2022-12-18T02:05:33;45.30;;;22.13;;
37983;SDS011;64625;50.882;4.376;2022-12-18T02:08:23;46.22;;;22.13;;
37983;SDS011;64625;50.882;4.376;2022-12-18T02:11:18;42.42;;;21.50;;
37983;SDS011;64625;50.882;4.376;2022-12-18T02:13:57;42.72;;;19.63;;
37983;SDS011;64625;50.882;4.376;2022-12-18T02:27:22;43.88;;;20.55;;
37983;SDS011;64625;50.882;4.376;2022-12-18T02:29:52;53.60;;;24.17;;
37983;SDS011;64625;50.882;4.376;2022-12-18T02:32:24;47.05;;;21.92;;
37983;SDS011;64625;50.882;4.376;2022-12-18T02:34:53;51.42;;;22.25;;
37983;SDS011;64625;50.882;4.376;2022-12-18T02:37:22;55.90;;;21.90;;
37983;SDS011;64625;50.882;4.376;2022-12-18T02:39:51;50.00;;;19.88;;
37983;SDS011;64625;50.882;4.376;2022-12-18T02:42:19;43.40;;;20.35;;
37983;SDS011;64625;50.882;4.376;2022-12-18T02:44:47;38.45;;;19.27;;
37983;SDS011;64625;50.882;4.376;2022-12-18T02:47:14;45.67;;;19.15;;
37983;SDS011;64625;50.882;4.376;2022-12-18T02:56:19;44.10;;;20.52;;
37983;SDS011;64625;50.882;4.376;2022-12-18T02:58:46;46.42;;;19.40;;
37983;SDS011;64625;50.882;4.376;2022-12-18T03:04:09;41.42;;;19.77;;
37983;SDS011;64625;50.882;4.376;2022-12-18T03:06:53;40.30;;;19.35;;
37983;SDS011;64625;50.882;4.376;2022-12-18T03:12:04;45.92;;;18.20;;
37983;SDS011;64625;50.882;4.376;2022-12-18T03:14:59;45.83;;;20.90;;
37983;SDS011;64625;50.882;4.376;2022-12-18T03:17:46;46.20;;;20.05;;
37983;SDS011;64625;50.882;4.376;2022-12-18T03:20:20;38.33;;;19.38;;
37983;SDS011;64625;50.882;4.376;2022-12-18T03:22:50;46.55;;;19.35;;
37983;SDS011;64625;50.882;4.376;2022-12-18T03:25:21;43.60;;;20.88;;
37983;SDS011;64625;50.882;4.376;2022-12-18T03:27:49;40.90;;;20.27;;
37983;SDS011;64625;50.882;4.376;2022-12-18T03:30:19;42.30;;;20.80;;
37983;SDS011;64625;50.882;4.376;2022-12-18T03:32:50;43.92;;;21.15;;
37983;SDS011;64625;50.882;4.376;2022-12-18T03:35:29;39.45;;;17.33;;
37983;SDS011;64625;50.882;4.376;2022-12-18T03:37:57;44.58;;;20.63;;
37983;SDS011;64625;50.882;4.376;2022-12-18T03:40:29;40.42;;;18.88;;
37983;SDS011;64625;50.882;4.376;2022-12-18T03:43:08;38.63;;;16.85;;
37983;SDS011;64625;50.882;4.376;2022-12-18T03:45:42;46.47;;;18.83;;
37983;SDS011;64625;50.882;4.376;2022-12-18T03:48:18;40.22;;;18.23;;
37983;SDS011;64625;50.882;4.376;2022-12-18T03:50:49;39.00;;;19.27;;
37983;SDS011;64625;50.882;4.376;2022-12-18T03:56:02;35.92;;;17.05;;
37983;SDS011;64625;50.882;4.376;2022-12-18T03:58:29;48.50;;;20.08;;
37983;SDS011;64625;50.882;4.376;2022-12-18T04:01:00;39.22;;;20.25;;
37983;SDS011;64625;50.882;4.376;2022-12-18T04:03:28;46.80;;;19.10;;
37983;SDS011;64625;50.882;4.376;2022-12-18T04:05:56;36.17;;;18.05;;
37983;SDS011;64625;50.882;4.376;2022-12-18T04:08:25;39.28;;;17.25;;
37983;SDS011;64625;50.882;4.376;2022-12-18T04:10:52;39.20;;;17.80;;
37983;SDS011;64625;50.882;4.376;2022-12-18T04:13:27;43.88;;;17.90;;
37983;SDS011;64625;50.882;4.376;2022-12-18T04:15:54;43.15;;;18.02;;
37983;SDS011;64625;50.882;4.376;2022-12-18T04:18:20;43.42;;;16.75;;
37983;SDS011;64625;50.882;4.376;2022-12-18T04:20:46;37.00;;;15.65;;
37983;SDS011;64625;50.882;4.376;2022-12-18T04:23:11;35.42;;;16.67;;
37983;SDS011;64625;50.882;4.376;2022-12-18T04:25:37;37.53;;;16.88;;
37983;SDS011;64625;50.882;4.376;2022-12-18T04:28:03;37.47;;;17.25;;
37983;SDS011;64625;50.882;4.376;2022-12-18T04:30:29;29.95;;;15.00;;
37983;SDS011;64625;50.882;4.376;2022-12-18T04:32:54;32.67;;;15.90;;
37983;SDS011;64625;50.882;4.376;2022-12-18T04:35:20;39.17;;;18.30;;
37983;SDS011;64625;50.882;4.376;2022-12-18T04:37:46;33.30;;;15.18;;
37983;SDS011;64625;50.882;4.376;2022-12-18T04:40:12;38.65;;;17.45;;
37983;SDS011;64625;50.882;4.376;2022-12-18T04:42:38;28.35;;;14.82;;
37983;SDS011;64625;50.882;4.376;2022-12-18T04:45:05;35.90;;;14.23;;
37983;SDS011;64625;50.882;4.376;2022-12-18T04:47:32;38.15;;;14.63;;
37983;SDS011;64625;50.882;4.376;2022-12-18T04:49:58;34.22;;;16.00;;
37983;SDS011;64625;50.882;4.376;2022-12-18T04:52:24;33.78;;;14.88;;
37983;SDS011;64625;50.882;4.376;2022-12-18T04:54:49;35.10;;;14.88;;
37983;SDS011;64625;50.882;4.376;2022-12-18T04:57:15;40.17;;;16.77;;
37983;SDS011;64625;50.882;4.376;2022-12-18T04:59:43;33.22;;;15.35;;
37983;SDS011;64625;50.882;4.376;2022-12-18T05:02:09;35.45;;;16.15;;
37983;SDS011;64625;50.882;4.376;2022-12-18T05:04:34;30.50;;;12.90;;
37983;SDS011;64625;50.882;4.376;2022-12-18T05:07:00;30.70;;;16.17;;
37983;SDS011;64625;50.882;4.376;2022-12-18T05:09:26;33.40;;;15.45;;
37983;SDS011;64625;50.882;4.376;2022-12-18T05:11:51;35.17;;;16.23;;
37983;SDS011;64625;50.882;4.376;2022-12-18T05:14:17;31.27;;;16.38;;
37983;SDS011;64625;50.882;4.376;2022-12-18T05:16:43;26.67;;;13.63;;
37983;SDS011;64625;50.882;4.376;2022-12-18T05:19:10;35.92;;;16.63;;
37983;SDS011;64625;50.882;4.376;2022-12-18T05:21:36;40.13;;;16.63;;
37983;SDS011;64625;50.882;4.376;2022-12-18T05:24:02;32.25;;;16.60;;
37983;SDS011;64625;50.882;4.376;2022-12-18T05:26:28;35.92;;;14.57;;
37983;SDS011;64625;50.882;4.376;2022-12-18T05:28:53;35.95;;;15.30;;
37983;SDS011;64625;50.882;4.376;2022-12-18T05:31:19;30.33;;;14.27;;
37983;SDS011;64625;50.882;4.376;2022-12-18T05:33:45;35.17;;;15.18;;
37983;SDS011;64625;50.882;4.376;2022-12-18T05:36:11;33.33;;;14.60;;
37983;SDS011;64625;50.882;4.376;2022-12-18T05:38:38;31.15;;;15.27;;
37983;SDS011;64625;50.882;4.376;2022-12-18T05:41:04;31.73;;;14.80;;
37983;SDS011;64625;50.882;4.376;2022-12-18T05:43:31;32.95;;;13.68;;
37983;SDS011;64625;50.882;4.376;2022-12-18T05:46:02;27.88;;;14.77;;
37983;SDS011;64625;50.882;4.376;2022-12-18T05:48:33;31.10;;;14.23;;
37983;SDS011;64625;50.882;4.376;2022-12-18T05:51:05;30.25;;;12.52;;
37983;SDS011;64625;50.882;4.376;2022-12-18T05:53:33;29.38;;;15.48;;
37983;SDS011;64625;50.882;4.376;2022-12-18T05:56:00;24.83;;;14.00;;
37983;SDS011;64625;50.882;4.376;2022-12-18T05:58:31;29.15;;;13.45;;
37983;SDS011;64625;50.882;4.376;2022-12-18T06:00:57;30.90;;;14.63;;
37983;SDS011;64625;50.882;4.376;2022-12-18T06:03:30;29.45;;;14.73;;
37983;SDS011;64625;50.882;4.376;2022-12-18T06:05:56;28.98;;;14.23;;
37983;SDS011;64625;50.882;4.376;2022-12-18T06:08:21;25.30;;;13.60;;
37983;SDS011;64625;50.882;4.376;2022-12-18T06:10:51;28.55;;;12.48;;
37983;SDS011;64625;50.882;4.376;2022-12-18T06:13:20;31.25;;;14.57;;
37983;SDS011;64625;50.882;4.376;2022-12-18T06:15:46;35.47;;;17.08;;
37983;SDS011;64625;50.882;4.376;2022-12-18T06:18:12;26.83;;;13.07;;
37983;SDS011;64625;50.882;4.376;2022-12-18T06:20:38;27.08;;;14.40;;
37983;SDS011;64625;50.882;4.376;2022-12-18T06:23:06;31.67;;;16.50;;
37983;SDS011;64625;50.882;4.376;2022-12-18T06:25:32;28.55;;;15.07;;
37983;SDS011;64625;50.882;4.376;2022-12-18T06:27:58;31.60;;;14.55;;
37983;SDS011;64625;50.882;4.376;2022-12-18T06:30:24;29.70;;;15.80;;
37983;SDS011;64625;50.882;4.376;2022-12-18T06:32:50;22.40;;;12.20;;
37983;SDS011;64625;50.882;4.376;2022-12-18T06:35:18;31.98;;;13.60;;
37983;SDS011;64625;50.882;4.376;2022-12-18T06:37:44;27.63;;;14.18;;
37983;SDS011;64625;50.882;4.376;2022-12-18T06:40:09;36.80;;;14.40;;
37983;SDS011;64625;50.882;4.376;2022-12-18T06:42:35;29.60;;;13.25;;
37983;SDS011;64625;50.882;4.376;2022-12-18T06:45:01;32.13;;;13.93;;
37983;SDS011;64625;50.882;4.376;2022-12-18T06:47:27;32.25;;;14.77;;
37983;SDS011;64625;50.882;4.376;2022-12-18T06:49:53;32.22;;;13.52;;
37983;SDS011;64625;50.882;4.376;2022-12-18T06:52:21;32.50;;;14.38;;
37983;SDS011;64625;50.882;4.376;2022-12-18T06:54:47;24.58;;;12.00;;
37983;SDS011;64625;50.882;4.376;2022-12-18T06:57:13;27.80;;;11.93;;
37983;SDS011;64625;50.882;4.376;2022-12-18T06:59:38;22.73;;;12.20;;
37983;SDS011;64625;50.882;4.376;2022-12-18T07:02:04;26.80;;;12.68;;
37983;SDS011;64625;50.882;4.376;2022-12-18T07:04:30;27.30;;;13.70;;
37983;SDS011;64625;50.882;4.376;2022-12-18T07:06:56;26.08;;;14.23;;
37983;SDS011;64625;50.882;4.376;2022-12-18T07:09:23;23.92;;;11.57;;
37983;SDS011;64625;50.882;4.376;2022-12-18T07:11:49;26.00;;;12.93;;
37983;SDS011;64625;50.882;4.376;2022-12-18T07:14:15;22.05;;;11.25;;
37983;SDS011;64625;50.882;4.376;2022-12-18T07:16:41;30.45;;;12.40;;
37983;SDS011;64625;50.882;4.376;2022-12-18T07:19:06;23.95;;;11.48;;
37983;SDS011;64625;50.882;4.376;2022-12-18T07:21:32;26.48;;;12.52;;
37983;SDS011;64625;50.882;4.376;2022-12-18T07:23:58;21.73;;;10.82;;
37983;SDS011;64625;50.882;4.376;2022-12-18T07:26:24;23.67;;;11.40;;
37983;SDS011;64625;50.882;4.376;2022-12-18T07:28:54;21.75;;;11.23;;
37983;SDS011;64625;50.882;4.376;2022-12-18T07:31:21;23.92;;;11.75;;
37983;SDS011;64625;50.882;4.376;2022-12-18T07:33:47;27.65;;;12.05;;
37983;SDS011;64625;50.882;4.376;2022-12-18T07:36:13;22.98;;;9.60;;
37983;SDS011;64625;50.882;4.376;2022-12-18T07:38:39;23.05;;;10.10;;
37983;SDS011;64625;50.882;4.376;2022-12-18T07:41:06;20.67;;;10.18;;
37983;SDS011;64625;50.882;4.376;2022-12-18T07:43:38;25.27;;;10.85;;
37983;SDS011;64625;50.882;4.376;2022-12-18T07:46:05;24.30;;;11.02;;
37983;SDS011;64625;50.882;4.376;2022-12-18T07:48:34;20.23;;;10.07;;
37983;SDS011;64625;50.882;4.376;2022-12-18T07:51:01;30.05;;;13.45;;
37983;SDS011;64625;50.882;4.376;2022-12-18T07:53:29;21.63;;;10.82;;
37983;SDS011;64625;50.882;4.376;2022-12-18T07:55:56;22.88;;;12.63;;
37983;SDS011;64625;50.882;4.376;2022-12-18T07:58:22;23.20;;;11.27;;
37983;SDS011;64625;50.882;4.376;2022-12-18T08:00:48;23.33;;;9.50;;
37983;SDS011;64625;50.882;4.376;2022-12-18T08:03:14;22.30;;;10.77;;
37983;SDS011;64625;50.882;4.376;2022-12-18T08:05:40;24.30;;;11.73;;
37983;SDS011;64625;50.882;4.376;2022-12-18T08:08:05;23.58;;;10.20;;
37983;SDS011;64625;50.882;4.376;2022-12-18T08:10:31;21.23;;;10.65;;
37983;SDS011;64625;50.882;4.376;2022-12-18T08:12:57;25.10;;;11.95;;
37983;SDS011;64625;50.882;4.376;2022-12-18T08:15:23;23.83;;;10.70;;
37983;SDS011;64625;50.882;4.376;2022-12-18T08:17:48;21.90;;;9.82;;
37983;SDS011;64625;50.882;4.376;2022-12-18T08:20:17;25.45;;;10.45;;
37983;SDS011;64625;50.882;4.376;2022-12-18T08:22:43;26.00;;;11.88;;
37983;SDS011;64625;50.882;4.376;2022-12-18T08:25:09;25.85;;;10.55;;
37983;SDS011;64625;50.882;4.376;2022-12-18T08:27:35;20.77;;;10.95;;
37983;SDS011;64625;50.882;4.376;2022-12-18T08:30:02;19.45;;;9.90;;
37983;SDS011;64625;50.882;4.376;2022-12-18T08:32:28;21.65;;;10.48;;
37983;SDS011;64625;50.882;4.376;2022-12-18T08:34:54;27.17;;;10.20;;
37983;SDS011;64625;50.882;4.376;2022-12-18T08:37:21;27.08;;;10.75;;
37983;SDS011;64625;50.882;4.376;2022-12-18T08:39:46;23.42;;;9.45;;
37983;SDS011;64625;50.882;4.376;2022-12-18T08:42:15;19.88;;;9.57;;
37983;SDS011;64625;50.882;4.376;2022-12-18T08:45:00;17.75;;;11.07;;
37983;SDS011;64625;50.882;4.376;2022-12-18T08:47:29;21.63;;;10.68;;
37983;SDS011;64625;50.882;4.376;2022-12-18T08:49:55;21.35;;;10.27;;
37983;SDS011;64625;50.882;4.376;2022-12-18T08:52:20;22.52;;;10.02;;
37983;SDS011;64625;50.882;4.376;2022-12-18T08:54:46;20.67;;;10.18;;
37983;SDS011;64625;50.882;4.376;2022-12-18T08:57:12;21.20;;;10.90;;
37983;SDS011;64625;50.882;4.376;2022-12-18T08:59:38;26.75;;;11.32;;
37983;SDS011;64625;50.882;4.376;2022-12-18T09:02:04;23.77;;;10.52;;
37983;SDS011;64625;50.882;4.376;2022-12-18T09:04:29;21.40;;;11.13;;
37983;SDS011;64625;50.882;4.376;2022-12-18T09:06:55;27.75;;;12.25;;
37983;SDS011;64625;50.882;4.376;2022-12-18T09:09:21;37.97;;;12.65;;
37983;SDS011;64625;50.882;4.376;2022-12-18T09:11:47;21.80;;;10.70;;
37983;SDS011;64625;50.882;4.376;2022-12-18T09:14:13;25.92;;;12.75;;
37983;SDS011;64625;50.882;4.376;2022-12-18T09:16:39;22.52;;;10.60;;
37983;SDS011;64625;50.882;4.376;2022-12-18T09:19:05;25.00;;;9.18;;
37983;SDS011;64625;50.882;4.376;2022-12-18T09:21:31;21.70;;;12.32;;
37983;SDS011;64625;50.882;4.376;2022-12-18T09:23:59;20.60;;;10.35;;
37983;SDS011;64625;50.882;4.376;2022-12-18T09:26:26;22.73;;;11.15;;
37983;SDS011;64625;50.882;4.376;2022-12-18T09:28:52;16.92;;;9.93;;
37983;SDS011;64625;50.882;4.376;2022-12-18T09:31:19;20.20;;;10.25;;
37983;SDS011;64625;50.882;4.376;2022-12-18T09:33:47;21.20;;;10.05;;
37983;SDS011;64625;50.882;4.376;2022-12-18T09:36:14;24.00;;;10.88;;
37983;SDS011;64625;50.882;4.376;2022-12-18T09:38:41;23.45;;;11.77;;
37983;SDS011;64625;50.882;4.376;2022-12-18T09:43:53;21.60;;;10.43;;
37983;SDS011;64625;50.882;4.376;2022-12-18T09:46:43;19.77;;;9.93;;
37983;SDS011;64625;50.882;4.376;2022-12-18T09:49:21;19.15;;;10.75;;
37983;SDS011;64625;50.882;4.376;2022-12-18T09:51:52;22.65;;;11.48;;
37983;SDS011;64625;50.882;4.376;2022-12-18T09:54:40;22.55;;;10.13;;
37983;SDS011;64625;50.882;4.376;2022-12-18T09:57:42;23.73;;;12.75;;
37983;SDS011;64625;50.882;4.376;2022-12-18T10:00:20;17.27;;;9.43;;
37983;SDS011;64625;50.882;4.376;2022-12-18T10:02:48;19.92;;;9.75;;
37983;SDS011;64625;50.882;4.376;2022-12-18T10:11:22;23.33;;;10.55;;
37983;SDS011;64625;50.882;4.376;2022-12-18T10:14:15;19.25;;;10.15;;
37983;SDS011;64625;50.882;4.376;2022-12-18T10:17:04;25.23;;;10.73;;
37983;SDS011;64625;50.882;4.376;2022-12-18T10:19:52;21.52;;;10.93;;
37983;SDS011;64625;50.882;4.376;2022-12-18T10:28:10;22.15;;;11.73;;
37983;SDS011;64625;50.882;4.376;2022-12-18T10:30:38;24.33;;;10.63;;
37983;SDS011;64625;50.882;4.376;2022-12-18T10:33:10;19.42;;;12.07;;
37983;SDS011;64625;50.882;4.376;2022-12-18T10:35:41;18.38;;;10.57;;
37983;SDS011;64625;50.882;4.376;2022-12-18T10:43:19;18.98;;;10.25;;
37983;SDS011;64625;50.882;4.376;2022-12-18T10:48:31;18.55;;;8.63;;
37983;SDS011;64625;50.882;4.376;2022-12-18T10:50:58;29.65;;;12.55;;
37983;SDS011;64625;50.882;4.376;2022-12-18T10:53:26;25.85;;;11.80;;
37983;SDS011;64625;50.882;4.376;2022-12-18T10:55:57;22.15;;;10.82;;
37983;SDS011;64625;50.882;4.376;2022-12-18T10:58:28;24.65;;;12.27;;
37983;SDS011;64625;50.882;4.376;2022-12-18T11:01:17;25.00;;;11.80;;
37983;SDS011;64625;50.882;4.376;2022-12-18T11:06:16;23.60;;;11.77;;
37983;SDS011;64625;50.882;4.376;2022-12-18T11:08:45;24.52;;;13.65;;
37983;SDS011;64625;50.882;4.376;2022-12-18T11:11:26;24.15;;;12.55;;
37983;SDS011;64625;50.882;4.376;2022-12-18T11:16:36;30.27;;;15.20;;
37983;SDS011;64625;50.882;4.376;2022-12-18T11:21:53;26.52;;;11.80;;
37983;SDS011;64625;50.882;4.376;2022-12-18T11:24:20;26.45;;;12.07;;
37983;SDS011;64625;50.882;4.376;2022-12-18T11:26:57;27.55;;;14.00;;
37983;SDS011;64625;50.882;4.376;2022-12-18T11:29:37;42.55;;;22.15;;
37983;SDS011;64625;50.882;4.376;2022-12-18T11:35:03;26.52;;;12.88;;
37983;SDS011;64625;50.882;4.376;2022-12-18T11:38:04;34.65;;;16.67;;
37983;SDS011;64625;50.882;4.376;2022-12-18T11:41:15;22.88;;;12.65;;
37983;SDS011;64625;50.882;4.376;2022-12-18T11:46:33;24.85;;;12.43;;
37983;SDS011;64625;50.882;4.376;2022-12-18T11:49:18;20.27;;;12.02;;
37983;SDS011;64625;50.882;4.376;2022-12-18T11:52:00;23.08;;;11.88;;
37983;SDS011;64625;50.882;4.376;2022-12-18T11:54:50;24.17;;;12.15;;
37983;SDS011;64625;50.882;4.376;2022-12-18T11:57:26;24.63;;;11.98;;
37983;SDS011;64625;50.882;4.376;2022-12-18T12:02:44;31.35;;;12.38;;
37983;SDS011;64625;50.882;4.376;2022-12-18T12:38:22;28.17;;;12.18;;
37983;SDS011;64625;50.882;4.376;2022-12-18T12:40:56;27.00;;;13.18;;
37983;SDS011;64625;50.882;4.376;2022-12-18T12:43:41;33.22;;;13.77;;
37983;SDS011;64625;50.882;4.376;2022-12-18T12:46:11;23.13;;;11.82;;
37983;SDS011;64625;50.882;4.376;2022-12-18T12:53:46;27.27;;;13.13;;
37983;SDS011;64625;50.882;4.376;2022-12-18T12:56:13;36.63;;;14.93;;
37983;SDS011;64625;50.882;4.376;2022-12-18T12:59:02;34.88;;;15.13;;
37983;SDS011;64625;50.882;4.376;2022-12-18T13:01:40;26.17;;;13.02;;
37983;SDS011;64625;50.882;4.376;2022-12-18T13:04:29;30.52;;;14.07;;
37983;SDS011;64625;50.882;4.376;2022-12-18T13:18:22;28.73;;;15.00;;
37983;SDS011;64625;50.882;4.376;2022-12-18T13:20:50;39.25;;;17.35;;
37983;SDS011;64625;50.882;4.376;2022-12-18T13:34:16;43.42;;;17.48;;
37983;SDS011;64625;50.882;4.376;2022-12-18T13:36:44;38.53;;;18.67;;
37983;SDS011;64625;50.882;4.376;2022-12-18T13:41:43;38.30;;;16.85;;
37983;SDS011;64625;50.882;4.376;2022-12-18T13:44:22;37.90;;;16.33;;
37983;SDS011;64625;50.882;4.376;2022-12-18T13:47:01;37.65;;;16.40;;
37983;SDS011;64625;50.882;4.376;2022-12-18T13:52:16;33.10;;;16.50;;
37983;SDS011;64625;50.882;4.376;2022-12-18T13:54:50;36.30;;;18.48;;
37983;SDS011;64625;50.882;4.376;2022-12-18T13:57:28;43.38;;;18.85;;
37983;SDS011;64625;50.882;4.376;2022-12-18T13:59:55;38.70;;;18.48;;
37983;SDS011;64625;50.882;4.376;2022-12-18T14:02:23;37.58;;;18.60;;
37983;SDS011;64625;50.882;4.376;2022-12-18T14:04:50;39.83;;;19.88;;
37983;SDS011;64625;50.882;4.376;2022-12-18T14:07:26;38.53;;;17.92;;
37983;SDS011;64625;50.882;4.376;2022-12-18T14:09:55;37.40;;;18.27;;
37983;SDS011;64625;50.882;4.376;2022-12-18T14:12:27;46.40;;;21.63;;
37983;SDS011;64625;50.882;4.376;2022-12-18T14:18:00;44.42;;;18.80;;
37983;SDS011;64625;50.882;4.376;2022-12-18T14:20:29;38.10;;;19.80;;
37983;SDS011;64625;50.882;4.376;2022-12-18T14:22:58;37.78;;;19.58;;
37983;SDS011;64625;50.882;4.376;2022-12-18T14:25:28;40.38;;;19.52;;
37983;SDS011;64625;50.882;4.376;2022-12-18T14:30:46;36.28;;;19.63;;
37983;SDS011;64625;50.882;4.376;2022-12-18T14:33:16;41.33;;;20.00;;
37983;SDS011;64625;50.882;4.376;2022-12-18T14:38:38;47.03;;;20.85;;
37983;SDS011;64625;50.882;4.376;2022-12-18T14:41:14;40.50;;;20.05;;
37983;SDS011;64625;50.882;4.376;2022-12-18T14:43:43;43.08;;;21.13;;
37983;SDS011;64625;50.882;4.376;2022-12-18T14:48:59;39.05;;;19.77;;
37983;SDS011;64625;50.882;4.376;2022-12-18T14:51:27;39.25;;;20.25;;
37983;SDS011;64625;50.882;4.376;2022-12-18T14:53:56;41.78;;;19.35;;
37983;SDS011;64625;50.882;4.376;2022-12-18T14:56:27;46.50;;;20.35;;
37983;SDS011;64625;50.882;4.376;2022-12-18T14:59:00;38.30;;;19.13;;
37983;SDS011;64625;50.882;4.376;2022-12-18T15:01:39;39.30;;;19.88;;
37983;SDS011;64625;50.882;4.376;2022-12-18T15:04:30;42.40;;;21.02;;
37983;SDS011;64625;50.882;4.376;2022-12-18T15:09:38;37.78;;;19.27;;
37983;SDS011;64625;50.882;4.376;2022-12-18T15:12:05;40.63;;;18.65;;
37983;SDS011;64625;50.882;4.376;2022-12-18T15:14:44;40.00;;;21.27;;
37983;SDS011;64625;50.882;4.376;2022-12-18T15:17:28;48.92;;;20.90;;
37983;SDS011;64625;50.882;4.376;2022-12-18T15:20:02;43.67;;;19.45;;
37983;SDS011;64625;50.882;4.376;2022-12-18T15:22:34;42.28;;;21.92;;
37983;SDS011;64625;50.882;4.376;2022-12-18T15:25:03;44.63;;;18.83;;
37983;SDS011;64625;50.882;4.376;2022-12-18T15:27:47;46.42;;;21.35;;
37983;SDS011;64625;50.882;4.376;2022-12-18T15:30:20;38.25;;;19.42;;
37983;SDS011;64625;50.882;4.376;2022-12-18T15:32:48;40.33;;;19.25;;
37983;SDS011;64625;50.882;4.376;2022-12-18T15:35:19;43.28;;;18.30;;
37983;SDS011;64625;50.882;4.376;2022-12-18T15:37:47;52.13;;;22.13;;
37983;SDS011;64625;50.882;4.376;2022-12-18T15:40:23;37.15;;;20.23;;
37983;SDS011;64625;50.882;4.376;2022-12-18T15:42:51;49.08;;;19.85;;
37983;SDS011;64625;50.882;4.376;2022-12-18T15:45:37;41.60;;;18.75;;
37983;SDS011;64625;50.882;4.376;2022-12-18T15:50:51;50.67;;;19.05;;
37983;SDS011;64625;50.882;4.376;2022-12-18T15:53:21;39.33;;;17.80;;
37983;SDS011;64625;50.882;4.376;2022-12-18T15:55:52;34.80;;;19.17;;
37983;SDS011;64625;50.882;4.376;2022-12-18T15:58:36;44.03;;;20.15;;
37983;SDS011;64625;50.882;4.376;2022-12-18T16:01:02;43.92;;;20.13;;
37983;SDS011;64625;50.882;4.376;2022-12-18T16:03:28;36.13;;;17.90;;
37983;SDS011;64625;50.882;4.376;2022-12-18T16:05:54;42.78;;;19.25;;
37983;SDS011;64625;50.882;4.376;2022-12-18T16:08:20;42.38;;;19.27;;
37983;SDS011;64625;50.882;4.376;2022-12-18T16:10:46;41.97;;;19.60;;
37983;SDS011;64625;50.882;4.376;2022-12-18T16:13:12;46.35;;;19.95;;
37983;SDS011;64625;50.882;4.376;2022-12-18T16:15:44;42.00;;;18.75;;
37983;SDS011;64625;50.882;4.376;2022-12-18T16:18:10;37.58;;;19.23;;
37983;SDS011;64625;50.882;4.376;2022-12-18T16:20:36;38.25;;;19.55;;
37983;SDS011;64625;50.882;4.376;2022-12-18T16:23:03;40.92;;;18.92;;
37983;SDS011;64625;50.882;4.376;2022-12-18T16:25:32;33.90;;;17.45;;
37983;SDS011;64625;50.882;4.376;2022-12-18T16:27:58;44.97;;;21.45;;
37983;SDS011;64625;50.882;4.376;2022-12-18T16:30:25;35.28;;;16.75;;
37983;SDS011;64625;50.882;4.376;2022-12-18T16:32:56;39.25;;;18.05;;
37983;SDS011;64625;50.882;4.376;2022-12-18T16:35:23;39.63;;;20.70;;
37983;SDS011;64625;50.882;4.376;2022-12-18T16:37:50;32.83;;;17.35;;
37983;SDS011;64625;50.882;4.376;2022-12-18T16:40:16;38.72;;;17.33;;
37983;SDS011;64625;50.882;4.376;2022-12-18T16:42:43;39.35;;;19.38;;
37983;SDS011;64625;50.882;4.376;2022-12-18T16:45:14;39.70;;;17.20;;
37983;SDS011;64625;50.882;4.376;2022-12-18T16:47:42;40.90;;;18.75;;
37983;SDS011;64625;50.882;4.376;2022-12-18T16:50:08;38.72;;;18.08;;
37983;SDS011;64625;50.882;4.376;2022-12-18T16:52:35;36.53;;;17.25;;
37983;SDS011;64625;50.882;4.376;2022-12-18T16:55:02;40.20;;;18.73;;
37983;SDS011;64625;50.882;4.376;2022-12-18T16:57:28;39.92;;;17.02;;
37983;SDS011;64625;50.882;4.376;2022-12-18T16:59:54;37.20;;;17.35;;
37983;SDS011;64625;50.882;4.376;2022-12-18T17:02:21;36.78;;;17.33;;
37983;SDS011;64625;50.882;4.376;2022-12-18T17:04:55;44.13;;;19.65;;
37983;SDS011;64625;50.882;4.376;2022-12-18T17:09:48;42.13;;;17.13;;
37983;SDS011;64625;50.882;4.376;2022-12-18T17:12:15;34.58;;;18.35;;
37983;SDS011;64625;50.882;4.376;2022-12-18T17:14:41;42.70;;;18.20;;